Terminal Aerodrome Forecast
Issued by NWS St Louis, MO

Home | Current Version | Previous Version | Text Only | Print | Product List | Glossary On
Versions: 1 2 3 4 5 6 7 8 9 10 11 12 13 14
000
FTUS43 KLSX 031130
TAFCOU
TAF
KCOU 031130Z 0312/0412 31004KT 1/4SM FG OVC003
     FM031400 VRB03KT 5SM BR BKN040
     FM031500 31007KT P6SM SCT060
     FM040300 23006KT P6SM SCT200
     FM041000 26008KT P6SM SCT070 WS010/28040KT=

USA.gov is the U.S. government's official web portal to all federal, state and local government web resources and services.